Portada
METAR-TAF:

METAR-TAF

Aeropuertos :

Aeropuerto Internacional Hamad

Doha, Qatar

latitud: 25-16-23N, longitud: 51-36-29E, altitud: 4 m

Observación

El informe se hizo hace 44 minutos, a las 14:00 UTC
Viento 7 kt del noreste
Temperatura 28°C
Humedad 35%
Presión 1007 hPa
Visibilidad 10 km o más
sin nubes por debajo de 1500 m y sin presencia de cumulonimbus.

METAR: OTHH 141400Z AUTO 05007KT CAVOK 28/11 Q1007 NOSIG

Hora: 17:44 (14:44 UTC)

Pronóstico

El informe se hizo hace 3 horas y 43 minutos, a las 11:01 UTC
Pronóstico válido del 14 a las 12 UTC al 15 a las 18 UTC
Viento 8 kt del este-sureste
Visibilidad: 8000 m
Temporalmente
del 15 a las 06 UTC al 15 a las 18 UTC
Viento 10 kt del este con ráfagas de 20 kt
Visibilidad: 7000 m
Escasas nubes a una altura de 3000 ft
Nubes dispersas a una altura de 9000 ft
lluvia ligera,

TAF: OTHH 141101Z 1412/1518 11008KT 8000 NSC TEMPO 1506/1518 09010G20KT 7000 -RA FEW030 SCT090

Observaciones y pronósticos meteorológicos de más de 4000 aeropuertos (mensajes METAR y TAF).

Los puntos amarillos y rojos representan las estaciones disponibles.

Ponga el ratón en el punto deseado para ver el nombre de la estación.

Haga clic para ver las observaciones y los pronósticos meteorológicos.

Para cambiar el mapa : haga clic en los botones verdes con una cruz de color negro para hacer un zoom, en el botón verde con un guión para alejar o en las flechas verdes para mapas adyacentes.


METAR-TAF: